100LL.CA
Aviation Fuel Pricing for Canadians
Please upgrade your browser - Tested with IE9, FireFox, Chrome, Safari

Fuel Airports Other Help
Prices Economy Info List METAR/TAF Kneeboard Help

Reference Airport: SWIFT CURRENT, SK
N 50 17 33  W 107 41 27
Provinces to show:

CYYN SWIFT CURRENT, SK
WEATHER
METARCYYN 221500Z AUTO 28008KT 9SM CLR 17/10 A2995 RMK SLP142 DENSITY ALT 3600FT
TAFTAF CYYN 221140Z 2212/2224 25008KT P6SM FEW120 FM221800 29012KT P6SM SCT050 TEMPO 2220/2224 P6SM VCTS BKN050CB RMK FCST BASED ON AUTO OBS. NXT FCST BY 221800Z
OTHER SITES

FlightAware

FltPlan

Google Maps

SkyVector
FUEL
FBO 100LL
member
100LL
public
JETA MOGAS
Opr (2022-08-20)2.5001.990
  Note: Self Serve but no washrooms off-hours. Landing Fees for some private A/C.
Canada Flight Supplement - CYYN
(opens in new tab/window)


Please Send Updates!

Desktop Version ]  [ Mobile Version ]  [ Disclaimer ]